sensor_id;sensor_type;location;lat;lon;timestamp;pressure;altitude;pressure_sealevel;temperature;humidity
5062;BME280;2351;50.812;12.872;2024-02-15T00:01:17;98189.88;;;7.72;100.00
5062;BME280;2351;50.812;12.872;2024-02-15T00:03:49;98185.41;;;7.72;100.00
5062;BME280;2351;50.812;12.872;2024-02-15T00:06:20;98179.09;;;7.75;100.00
5062;BME280;2351;50.812;12.872;2024-02-15T00:08:52;98184.25;;;7.76;100.00
5062;BME280;2351;50.812;12.872;2024-02-15T00:11:24;98181.41;;;7.79;100.00
5062;BME280;2351;50.812;12.872;2024-02-15T00:13:56;98179.50;;;7.81;100.00
5062;BME280;2351;50.812;12.872;2024-02-15T00:16:29;98179.50;;;7.81;100.00
5062;BME280;2351;50.812;12.872;2024-02-15T00:19:01;98183.72;;;7.84;100.00
5062;BME280;2351;50.812;12.872;2024-02-15T00:21:33;98167.91;;;7.84;100.00
5062;BME280;2351;50.812;12.872;2024-02-15T00:24:05;98170.41;;;7.86;100.00
5062;BME280;2351;50.812;12.872;2024-02-15T00:26:38;98171.28;;;7.86;100.00
5062;BME280;2351;50.812;12.872;2024-02-15T00:29:10;98172.97;;;7.87;100.00
5062;BME280;2351;50.812;12.872;2024-02-15T00:31:43;98176.41;;;7.88;100.00
5062;BME280;2351;50.812;12.872;2024-02-15T00:34:15;98169.25;;;7.90;100.00
5062;BME280;2351;50.812;12.872;2024-02-15T00:36:47;98168.22;;;7.92;100.00
5062;BME280;2351;50.812;12.872;2024-02-15T00:39:19;98174.09;;;7.96;100.00
5062;BME280;2351;50.812;12.872;2024-02-15T00:41:51;98167.00;;;7.96;100.00
5062;BME280;2351;50.812;12.872;2024-02-15T00:44:23;98169.66;;;7.96;100.00
5062;BME280;2351;50.812;12.872;2024-02-15T00:46:56;98176.59;;;7.97;100.00
5062;BME280;2351;50.812;12.872;2024-02-15T00:49:27;98175.03;;;7.95;100.00
5062;BME280;2351;50.812;12.872;2024-02-15T00:51:59;98174.09;;;7.96;100.00
5062;BME280;2351;50.812;12.872;2024-02-15T00:54:31;98168.69;;;7.97;100.00
5062;BME280;2351;50.812;12.872;2024-02-15T00:57:03;98173.13;;;7.97;100.00
5062;BME280;2351;50.812;12.872;2024-02-15T00:59:34;98173.88;;;7.99;100.00
5062;BME280;2351;50.812;12.872;2024-02-15T01:02:08;98175.44;;;8.02;100.00
5062;BME280;2351;50.812;12.872;2024-02-15T01:04:40;98181.56;;;8.02;100.00
5062;BME280;2351;50.812;12.872;2024-02-15T01:07:13;98178.72;;;8.05;100.00
5062;BME280;2351;50.812;12.872;2024-02-15T01:09:44;98169.94;;;8.05;100.00
5062;BME280;2351;50.812;12.872;2024-02-15T01:12:16;98168.03;;;8.07;100.00
5062;BME280;2351;50.812;12.872;2024-02-15T01:14:48;98164.47;;;8.08;100.00
5062;BME280;2351;50.812;12.872;2024-02-15T01:17:21;98169.59;;;8.09;100.00
5062;BME280;2351;50.812;12.872;2024-02-15T01:19:53;98172.25;;;8.09;100.00
5062;BME280;2351;50.812;12.872;2024-02-15T01:22:25;98176.78;;;8.07;100.00
5062;BME280;2351;50.812;12.872;2024-02-15T01:24:57;98178.59;;;8.07;100.00
5062;BME280;2351;50.812;12.872;2024-02-15T01:27:29;98170.56;;;8.08;100.00
5062;BME280;2351;50.812;12.872;2024-02-15T01:30:01;98158.31;;;8.07;100.00
5062;BME280;2351;50.812;12.872;2024-02-15T01:32:36;98170.56;;;8.08;100.00
5062;BME280;2351;50.812;12.872;2024-02-15T01:35:10;98166.00;;;8.10;100.00
5062;BME280;2351;50.812;12.872;2024-02-15T01:37:41;98170.34;;;8.11;100.00
5062;BME280;2351;50.812;12.872;2024-02-15T01:40:13;98172.97;;;8.11;100.00
5062;BME280;2351;50.812;12.872;2024-02-15T01:42:45;98170.34;;;8.11;100.00
5062;BME280;2351;50.812;12.872;2024-02-15T01:45:20;98182.56;;;8.12;100.00
5062;BME280;2351;50.812;12.872;2024-02-15T01:47:53;98171.81;;;8.16;100.00
5062;BME280;2351;50.812;12.872;2024-02-15T01:50:26;98169.16;;;8.16;100.00
5062;BME280;2351;50.812;12.872;2024-02-15T01:52:58;98171.06;;;8.13;100.00
5062;BME280;2351;50.812;12.872;2024-02-15T01:55:30;98159.56;;;8.14;100.00
5062;BME280;2351;50.812;12.872;2024-02-15T01:58:03;98161.25;;;8.16;100.00
5062;BME280;2351;50.812;12.872;2024-02-15T02:00:36;98161.25;;;8.16;100.00
5062;BME280;2351;50.812;12.872;2024-02-15T02:03:13;98157.78;;;8.15;100.00
5062;BME280;2351;50.812;12.872;2024-02-15T02:05:45;98150.72;;;8.16;100.00
5062;BME280;2351;50.812;12.872;2024-02-15T02:08:17;98150.72;;;8.16;100.00
5062;BME280;2351;50.812;12.872;2024-02-15T02:10:50;98147.94;;;8.17;100.00
5062;BME280;2351;50.812;12.872;2024-02-15T02:13:22;98148.94;;;8.16;100.00
5062;BME280;2351;50.812;12.872;2024-02-15T02:15:53;98150.72;;;8.16;100.00
5062;BME280;2351;50.812;12.872;2024-02-15T02:18:28;98151.56;;;8.16;100.00
5062;BME280;2351;50.812;12.872;2024-02-15T02:20:59;98158.50;;;8.17;100.00
5062;BME280;2351;50.812;12.872;2024-02-15T02:23:31;98157.66;;;8.17;100.00
5062;BME280;2351;50.812;12.872;2024-02-15T02:26:04;98157.66;;;8.17;100.00
5062;BME280;2351;50.812;12.872;2024-02-15T02:28:36;98166.41;;;8.17;100.00
5062;BME280;2351;50.812;12.872;2024-02-15T02:31:08;98155.78;;;8.19;100.00
5062;BME280;2351;50.812;12.872;2024-02-15T02:33:48;98160.09;;;8.20;100.00
5062;BME280;2351;50.812;12.872;2024-02-15T02:36:22;98163.56;;;8.20;100.00
5062;BME280;2351;50.812;12.872;2024-02-15T02:38:56;98156.59;;;8.19;100.00
5062;BME280;2351;50.812;12.872;2024-02-15T02:41:32;98166.09;;;8.22;100.00
5062;BME280;2351;50.812;12.872;2024-02-15T02:44:03;98166.09;;;8.22;100.00
5062;BME280;2351;50.812;12.872;2024-02-15T02:46:35;98165.25;;;8.21;100.00
5062;BME280;2351;50.812;12.872;2024-02-15T02:49:07;98158.41;;;8.19;100.00
5062;BME280;2351;50.812;12.872;2024-02-15T02:51:39;98154.69;;;8.21;100.00
5062;BME280;2351;50.812;12.872;2024-02-15T02:54:10;98161.78;;;8.21;100.00
5062;BME280;2351;50.812;12.872;2024-02-15T02:56:43;98155.78;;;8.19;100.00
5062;BME280;2351;50.812;12.872;2024-02-15T02:59:15;98153.88;;;8.21;100.00
5062;BME280;2351;50.812;12.872;2024-02-15T03:01:47;98160.81;;;8.22;100.00
5062;BME280;2351;50.812;12.872;2024-02-15T03:04:19;98157.31;;;8.21;100.00
5062;BME280;2351;50.812;12.872;2024-02-15T03:06:51;98159.00;;;8.22;100.00
5062;BME280;2351;50.812;12.872;2024-02-15T03:09:26;98156.38;;;8.22;100.00
5062;BME280;2351;50.812;12.872;2024-02-15T03:12:01;98156.38;;;8.22;100.00
5062;BME280;2351;50.812;12.872;2024-02-15T03:14:32;98158.28;;;8.20;100.00
5062;BME280;2351;50.812;12.872;2024-02-15T03:17:05;98159.13;;;8.21;100.00
5062;BME280;2351;50.812;12.872;2024-02-15T03:19:37;98160.09;;;8.20;100.00
5062;BME280;2351;50.812;12.872;2024-02-15T03:22:09;98163.78;;;8.17;100.00
5062;BME280;2351;50.812;12.872;2024-02-15T03:24:43;98159.56;;;8.14;100.00
5062;BME280;2351;50.812;12.872;2024-02-15T03:27:17;98165.72;;;8.15;100.00
5062;BME280;2351;50.812;12.872;2024-02-15T03:29:49;98163.16;;;8.13;100.00
5062;BME280;2351;50.812;12.872;2024-02-15T03:32:21;98161.47;;;8.12;100.00
5062;BME280;2351;50.812;12.872;2024-02-15T03:34:53;98161.59;;;8.11;100.00
5062;BME280;2351;50.812;12.872;2024-02-15T03:37:25;98162.44;;;8.11;100.00
5062;BME280;2351;50.812;12.872;2024-02-15T03:39:57;98158.00;;;8.12;100.00
5062;BME280;2351;50.812;12.872;2024-02-15T03:42:30;98159.78;;;8.11;100.00
5062;BME280;2351;50.812;12.872;2024-02-15T03:45:02;98158.97;;;8.11;100.00
5062;BME280;2351;50.812;12.872;2024-02-15T03:47:34;98156.19;;;8.12;100.00
5062;BME280;2351;50.812;12.872;2024-02-15T03:50:08;98161.69;;;8.09;100.00
5062;BME280;2351;50.812;12.872;2024-02-15T03:52:40;98159.19;;;8.08;100.00
5062;BME280;2351;50.812;12.872;2024-02-15T03:55:12;98168.03;;;8.07;100.00
5062;BME280;2351;50.812;12.872;2024-02-15T03:57:46;98161.91;;;8.06;100.00
5062;BME280;2351;50.812;12.872;2024-02-15T04:00:17;98157.50;;;8.07;100.00
5062;BME280;2351;50.812;12.872;2024-02-15T04:02:51;98154.88;;;8.07;100.00
5062;BME280;2351;50.812;12.872;2024-02-15T04:05:22;98160.13;;;8.07;100.00
5062;BME280;2351;50.812;12.872;2024-02-15T04:07:54;98169.13;;;8.04;100.00
5062;BME280;2351;50.812;12.872;2024-02-15T04:10:26;98155.94;;;8.04;100.00
5062;BME280;2351;50.812;12.872;2024-02-15T04:12:59;98156.88;;;8.03;100.00
5062;BME280;2351;50.812;12.872;2024-02-15T04:15:30;98151.72;;;8.02;100.00
5062;BME280;2351;50.812;12.872;2024-02-15T04:18:04;98157.09;;;8.00;100.00
5062;BME280;2351;50.812;12.872;2024-02-15T04:20:36;98157.31;;;7.97;100.00
5062;BME280;2351;50.812;12.872;2024-02-15T04:23:07;98160.06;;;7.95;100.00
5062;BME280;2351;50.812;12.872;2024-02-15T04:25:39;98163.66;;;7.94;100.00
5062;BME280;2351;50.812;12.872;2024-02-15T04:28:12;98169.16;;;7.91;100.00
5062;BME280;2351;50.812;12.872;2024-02-15T04:30:44;98167.56;;;7.89;100.00
5062;BME280;2351;50.812;12.872;2024-02-15T04:33:17;98170.94;;;7.91;100.00
5062;BME280;2351;50.812;12.872;2024-02-15T04:35:48;98169.16;;;7.91;100.00
5062;BME280;2351;50.812;12.872;2024-02-15T04:38:21;98180.44;;;7.93;100.00
5062;BME280;2351;50.812;12.872;2024-02-15T04:40:55;98169.03;;;7.93;100.00
5062;BME280;2351;50.812;12.872;2024-02-15T04:43:29;98167.25;;;7.93;100.00
5062;BME280;2351;50.812;12.872;2024-02-15T04:46:01;98169.88;;;7.93;100.00
5062;BME280;2351;50.812;12.872;2024-02-15T04:48:37;98175.88;;;7.95;100.00
5062;BME280;2351;50.812;12.872;2024-02-15T04:51:09;98178.50;;;7.95;100.00
5062;BME280;2351;50.812;12.872;2024-02-15T04:53:42;98182.72;;;7.98;100.00
5062;BME280;2351;50.812;12.872;2024-02-15T04:56:14;98181.78;;;7.99;100.00
5062;BME280;2351;50.812;12.872;2024-02-15T04:58:47;98175.56;;;8.00;100.00
5062;BME280;2351;50.812;12.872;2024-02-15T05:01:21;98176.50;;;7.99;100.00
5062;BME280;2351;50.812;12.872;2024-02-15T05:03:53;98173.88;;;7.99;100.00
5062;BME280;2351;50.812;12.872;2024-02-15T05:06:25;98184.19;;;8.02;100.00
5062;BME280;2351;50.812;12.872;2024-02-15T05:09:00;98177.25;;;8.01;100.00
5062;BME280;2351;50.812;12.872;2024-02-15T05:11:37;98175.44;;;8.02;100.00
5062;BME280;2351;50.812;12.872;2024-02-15T05:14:13;98181.66;;;8.01;100.00
5062;BME280;2351;50.812;12.872;2024-02-15T05:16:49;98185.16;;;8.01;100.00
5062;BME280;2351;50.812;12.872;2024-02-15T05:19:21;98186.84;;;8.02;100.00
5062;BME280;2351;50.812;12.872;2024-02-15T05:21:54;98179.88;;;8.01;100.00
5062;BME280;2351;50.812;12.872;2024-02-15T05:24:25;98186.94;;;8.01;100.00
5062;BME280;2351;50.812;12.872;2024-02-15T05:26:57;98191.38;;;8.00;100.00
5062;BME280;2351;50.812;12.872;2024-02-15T05:29:31;98189.47;;;8.02;100.00
5062;BME280;2351;50.812;12.872;2024-02-15T05:32:05;98186.84;;;8.02;100.00
5062;BME280;2351;50.812;12.872;2024-02-15T05:34:36;98189.47;;;8.02;100.00
5062;BME280;2351;50.812;12.872;2024-02-15T05:37:09;98184.06;;;8.04;100.00
5062;BME280;2351;50.812;12.872;2024-02-15T05:39:42;98186.72;;;8.04;100.00
5062;BME280;2351;50.812;12.872;2024-02-15T05:42:15;98187.56;;;8.04;100.00
5062;BME280;2351;50.812;12.872;2024-02-15T05:44:48;98179.66;;;8.04;100.00
5062;BME280;2351;50.812;12.872;2024-02-15T05:47:21;98181.34;;;8.05;100.00
5062;BME280;2351;50.812;12.872;2024-02-15T05:49:52;98185.53;;;8.08;100.00
5062;BME280;2351;50.812;12.872;2024-02-15T05:52:25;98188.19;;;8.08;100.00
5062;BME280;2351;50.812;12.872;2024-02-15T05:54:56;98188.06;;;8.09;100.00
5062;BME280;2351;50.812;12.872;2024-02-15T05:57:28;98186.38;;;8.08;100.00
5062;BME280;2351;50.812;12.872;2024-02-15T06:00:01;98187.97;;;8.11;100.00
5062;BME280;2351;50.812;12.872;2024-02-15T06:02:33;98189.66;;;8.12;100.00
5062;BME280;2351;50.812;12.872;2024-02-15T06:05:05;98196.69;;;8.11;100.00
5062;BME280;2351;50.812;12.872;2024-02-15T06:07:40;98196.69;;;8.11;100.00
5062;BME280;2351;50.812;12.872;2024-02-15T06:10:12;98191.44;;;8.11;100.00
5062;BME280;2351;50.812;12.872;2024-02-15T06:12:44;98196.59;;;8.13;100.00
5062;BME280;2351;50.812;12.872;2024-02-15T06:15:18;98195.00;;;8.10;100.00
5062;BME280;2351;50.812;12.872;2024-02-15T06:17:50;98204.59;;;8.11;100.00
5062;BME280;2351;50.812;12.872;2024-02-15T06:20:22;98203.66;;;8.12;100.00
5062;BME280;2351;50.812;12.872;2024-02-15T06:22:54;98206.19;;;8.14;100.00
5062;BME280;2351;50.812;12.872;2024-02-15T06:25:27;98206.94;;;8.16;100.00
5062;BME280;2351;50.812;12.872;2024-02-15T06:27:59;98211.13;;;8.19;100.00
5062;BME280;2351;50.812;12.872;2024-02-15T06:30:34;98213.78;;;8.19;100.00
5062;BME280;2351;50.812;12.872;2024-02-15T06:33:23;98209.31;;;8.19;100.00
5062;BME280;2351;50.812;12.872;2024-02-15T06:36:12;98212.81;;;8.20;100.00
5062;BME280;2351;50.812;12.872;2024-02-15T06:39:02;98211.88;;;8.21;100.00
5062;BME280;2351;50.812;12.872;2024-02-15T06:41:51;98213.56;;;8.22;100.00
5062;BME280;2351;50.812;12.872;2024-02-15T06:44:23;98219.34;;;8.27;100.00
5062;BME280;2351;50.812;12.872;2024-02-15T06:46:56;98218.63;;;8.25;100.00
5062;BME280;2351;50.812;12.872;2024-02-15T06:49:28;98212.38;;;8.26;100.00
5062;BME280;2351;50.812;12.872;2024-02-15T06:52:00;98219.44;;;8.25;100.00
5062;BME280;2351;50.812;12.872;2024-02-15T06:54:33;98225.31;;;8.29;100.00
5062;BME280;2351;50.812;12.872;2024-02-15T06:57:06;98223.41;;;8.31;100.00
5062;BME280;2351;50.812;12.872;2024-02-15T06:59:38;98224.06;;;8.35;100.00
5062;BME280;2351;50.812;12.872;2024-02-15T07:02:11;98227.19;;;8.40;100.00
5062;BME280;2351;50.812;12.872;2024-02-15T07:04:44;98225.06;;;8.45;100.00
5062;BME280;2351;50.812;12.872;2024-02-15T07:07:16;98225.78;;;8.47;100.00
5062;BME280;2351;50.812;12.872;2024-02-15T07:09:48;98220.47;;;8.49;100.00
5062;BME280;2351;50.812;12.872;2024-02-15T07:12:19;98218.53;;;8.51;100.00
5062;BME280;2351;50.812;12.872;2024-02-15T07:14:52;98221.06;;;8.52;100.00
5062;BME280;2351;50.812;12.872;2024-02-15T07:17:26;98223.47;;;8.55;100.00
5062;BME280;2351;50.812;12.872;2024-02-15T07:19:58;98227.81;;;8.56;100.00
5062;BME280;2351;50.812;12.872;2024-02-15T07:22:30;98227.59;;;8.59;100.00
5062;BME280;2351;50.812;12.872;2024-02-15T07:25:03;98223.88;;;8.62;100.00
5062;BME280;2351;50.812;12.872;2024-02-15T07:27:35;98225.41;;;8.65;100.00
5062;BME280;2351;50.812;12.872;2024-02-15T07:30:07;98222.47;;;8.69;100.00
5062;BME280;2351;50.812;12.872;2024-02-15T07:32:41;98218.06;;;8.81;100.00
5062;BME280;2351;50.812;12.872;2024-02-15T07:35:12;98229.25;;;8.96;100.00
5062;BME280;2351;50.812;12.872;2024-02-15T07:37:54;98212.19;;;9.36;100.00
5062;BME280;2351;50.812;12.872;2024-02-15T07:40:28;98211.47;;;10.14;100.00
5062;BME280;2351;50.812;12.872;2024-02-15T07:43:00;98210.69;;;10.78;100.00
5062;BME280;2351;50.812;12.872;2024-02-15T07:45:33;98197.72;;;11.18;100.00
5062;BME280;2351;50.812;12.872;2024-02-15T07:48:08;98198.75;;;11.48;100.00
5062;BME280;2351;50.812;12.872;2024-02-15T07:50:40;98194.41;;;11.78;100.00
5062;BME280;2351;50.812;12.872;2024-02-15T07:53:14;98186.19;;;12.22;100.00
5062;BME280;2351;50.812;12.872;2024-02-15T07:55:46;98190.56;;;12.62;100.00
5062;BME280;2351;50.812;12.872;2024-02-15T07:58:18;98199.09;;;12.95;100.00
5062;BME280;2351;50.812;12.872;2024-02-15T08:00:50;98186.91;;;13.12;100.00
5062;BME280;2351;50.812;12.872;2024-02-15T08:03:23;98189.25;;;13.25;100.00
5062;BME280;2351;50.812;12.872;2024-02-15T08:05:55;98184.84;;;12.86;100.00
5062;BME280;2351;50.812;12.872;2024-02-15T08:08:27;98190.44;;;12.73;100.00
5062;BME280;2351;50.812;12.872;2024-02-15T08:10:58;98186.09;;;12.62;100.00
5062;BME280;2351;50.812;12.872;2024-02-15T08:13:32;98190.53;;;12.42;100.00
5062;BME280;2351;50.812;12.872;2024-02-15T08:16:04;98194.75;;;12.45;100.00
5062;BME280;2351;50.812;12.872;2024-02-15T08:18:38;98199.81;;;12.77;100.00
5062;BME280;2351;50.812;12.872;2024-02-15T08:21:10;98191.84;;;12.68;100.00
5062;BME280;2351;50.812;12.872;2024-02-15T08:23:42;98190.28;;;12.65;100.00
5062;BME280;2351;50.812;12.872;2024-02-15T08:26:13;98188.19;;;12.98;100.00
5062;BME280;2351;50.812;12.872;2024-02-15T08:28:47;98185.53;;;12.98;100.00
5062;BME280;2351;50.812;12.872;2024-02-15T08:31:20;98193.34;;;12.90;100.00
5062;BME280;2351;50.812;12.872;2024-02-15T08:33:53;98190.97;;;12.87;100.00
5062;BME280;2351;50.812;12.872;2024-02-15T08:36:25;98189.25;;;13.15;100.00
5062;BME280;2351;50.812;12.872;2024-02-15T08:38:57;98195.44;;;13.06;100.00
5062;BME280;2351;50.812;12.872;2024-02-15T08:41:29;98198.13;;;12.57;100.00
5062;BME280;2351;50.812;12.872;2024-02-15T08:44:01;98191.22;;;12.15;100.00
5062;BME280;2351;50.812;12.872;2024-02-15T08:46:36;98192.31;;;12.02;100.00
5062;BME280;2351;50.812;12.872;2024-02-15T08:49:09;98193.88;;;11.84;100.00
5062;BME280;2351;50.812;12.872;2024-02-15T08:51:43;98197.22;;;11.86;100.00
5062;BME280;2351;50.812;12.872;2024-02-15T08:54:15;98192.22;;;11.93;100.00
5062;BME280;2351;50.812;12.872;2024-02-15T08:56:47;98192.56;;;11.99;100.00
5062;BME280;2351;50.812;12.872;2024-02-15T08:59:18;98187.13;;;12.11;100.00
5062;BME280;2351;50.812;12.872;2024-02-15T09:01:50;98188.72;;;12.23;100.00
5062;BME280;2351;50.812;12.872;2024-02-15T09:04:25;98182.03;;;12.29;100.00
5062;BME280;2351;50.812;12.872;2024-02-15T09:06:57;98181.31;;;12.37;100.00
5062;BME280;2351;50.812;12.872;2024-02-15T09:09:29;98185.66;;;12.38;100.00
5062;BME280;2351;50.812;12.872;2024-02-15T09:12:02;98188.41;;;12.26;100.00
5062;BME280;2351;50.812;12.872;2024-02-15T09:14:36;98193.16;;;12.13;100.00
5062;BME280;2351;50.812;12.872;2024-02-15T09:17:08;98196.59;;;12.03;100.00
5062;BME280;2351;50.812;12.872;2024-02-15T09:19:41;98202.41;;;11.87;100.00
5062;BME280;2351;50.812;12.872;2024-02-15T09:22:13;98202.38;;;11.78;100.00
5062;BME280;2351;50.812;12.872;2024-02-15T09:24:44;98212.94;;;11.68;100.00
5062;BME280;2351;50.812;12.872;2024-02-15T09:27:16;98208.03;;;11.63;100.00
5062;BME280;2351;50.812;12.872;2024-02-15T09:29:48;98205.22;;;11.55;100.00
5062;BME280;2351;50.812;12.872;2024-02-15T09:32:20;98207.41;;;11.50;100.00
5062;BME280;2351;50.812;12.872;2024-02-15T09:34:54;98206.38;;;11.41;100.00
5062;BME280;2351;50.812;12.872;2024-02-15T09:37:25;98209.81;;;11.32;100.00
5062;BME280;2351;50.812;12.872;2024-02-15T09:39:58;98211.19;;;11.26;100.00
5062;BME280;2351;50.812;12.872;2024-02-15T09:42:35;98205.81;;;11.16;100.00
5062;BME280;2351;50.812;12.872;2024-02-15T09:45:10;98214.41;;;11.08;100.00
5062;BME280;2351;50.812;12.872;2024-02-15T09:47:43;98213.50;;;10.98;100.00
5062;BME280;2351;50.812;12.872;2024-02-15T09:50:17;98209.41;;;10.94;100.00
5062;BME280;2351;50.812;12.872;2024-02-15T09:52:49;98211.50;;;10.90;100.00
5062;BME280;2351;50.812;12.872;2024-02-15T09:55:22;98200.78;;;10.92;100.00
5062;BME280;2351;50.812;12.872;2024-02-15T09:57:55;98204.84;;;10.96;100.00
5062;BME280;2351;50.812;12.872;2024-02-15T10:00:26;98203.22;;;11.05;100.00
5062;BME280;2351;50.812;12.872;2024-02-15T10:02:59;98208.56;;;11.14;100.00
5062;BME280;2351;50.812;12.872;2024-02-15T10:05:34;98209.34;;;11.26;100.00
5062;BME280;2351;50.812;12.872;2024-02-15T10:08:06;98210.78;;;11.30;100.00
5062;BME280;2351;50.812;12.872;2024-02-15T10:10:38;98208.97;;;11.31;100.00
5062;BME280;2351;50.812;12.872;2024-02-15T10:13:13;98203.44;;;11.34;100.00
5062;BME280;2351;50.812;12.872;2024-02-15T10:15:45;98207.63;;;11.37;100.00
5062;BME280;2351;50.812;12.872;2024-02-15T10:18:20;98206.50;;;11.39;100.00
5062;BME280;2351;50.812;12.872;2024-02-15T10:20:58;98203.13;;;11.37;100.00
5062;BME280;2351;50.812;12.872;2024-02-15T10:23:30;98207.34;;;11.40;100.00
5062;BME280;2351;50.812;12.872;2024-02-15T10:26:19;98210.84;;;11.40;100.00
5062;BME280;2351;50.812;12.872;2024-02-15T10:29:05;98209.03;;;11.41;100.00
5062;BME280;2351;50.812;12.872;2024-02-15T10:31:40;98209.88;;;11.41;100.00
5062;BME280;2351;50.812;12.872;2024-02-15T10:34:14;98210.13;;;11.38;100.00
5062;BME280;2351;50.812;12.872;2024-02-15T10:36:47;98212.09;;;11.36;100.00
5062;BME280;2351;50.812;12.872;2024-02-15T10:39:19;98211.94;;;11.38;100.00
5062;BME280;2351;50.812;12.872;2024-02-15T10:41:52;98210.13;;;11.38;100.00
5062;BME280;2351;50.812;12.872;2024-02-15T10:44:25;98201.19;;;11.39;100.00
5062;BME280;2351;50.812;12.872;2024-02-15T10:46:58;98197.59;;;11.40;100.00
5062;BME280;2351;50.812;12.872;2024-02-15T10:49:30;98193.13;;;11.41;100.00
5062;BME280;2351;50.812;12.872;2024-02-15T10:52:04;98198.28;;;11.42;100.00
5062;BME280;2351;50.812;12.872;2024-02-15T10:54:47;98193.00;;;11.42;100.00
5062;BME280;2351;50.812;12.872;2024-02-15T10:57:20;98189.38;;;11.43;100.00
5062;BME280;2351;50.812;12.872;2024-02-15T10:59:55;98191.91;;;11.45;100.00
5062;BME280;2351;50.812;12.872;2024-02-15T11:02:29;98188.00;;;11.49;100.00
5062;BME280;2351;50.812;12.872;2024-02-15T11:05:03;98189.41;;;11.53;100.00
5062;BME280;2351;50.812;12.872;2024-02-15T11:07:41;98182.31;;;11.54;100.00
5062;BME280;2351;50.812;12.872;2024-02-15T11:10:13;98182.31;;;11.54;100.00
5062;BME280;2351;50.812;12.872;2024-02-15T11:12:47;98178.69;;;11.55;100.00
5062;BME280;2351;50.812;12.872;2024-02-15T11:15:39;98174.66;;;11.60;100.00
5062;BME280;2351;50.812;12.872;2024-02-15T11:18:12;98165.59;;;11.63;100.00
5062;BME280;2351;50.812;12.872;2024-02-15T11:20:48;98160.31;;;11.63;100.00
5062;BME280;2351;50.812;12.872;2024-02-15T11:23:27;98160.03;;;11.66;100.00
5062;BME280;2351;50.812;12.872;2024-02-15T11:25:59;98157.56;;;11.74;100.00
5062;BME280;2351;50.812;12.872;2024-02-15T11:28:38;98156.88;;;11.82;100.00
5062;BME280;2351;50.812;12.872;2024-02-15T11:31:10;98155.22;;;11.81;100.00
5062;BME280;2351;50.812;12.872;2024-02-15T11:37:05;98146.38;;;12.12;100.00
5062;BME280;2351;50.812;12.872;2024-02-15T11:39:41;98140.81;;;12.25;100.00
5062;BME280;2351;50.812;12.872;2024-02-15T11:42:28;98144.28;;;12.25;100.00
5062;BME280;2351;50.812;12.872;2024-02-15T11:45:03;98146.28;;;12.33;100.00
5062;BME280;2351;50.812;12.872;2024-02-15T11:47:37;98135.66;;;12.43;100.00
5062;BME280;2351;50.812;12.872;2024-02-15T11:50:10;98138.03;;;12.46;100.00
5062;BME280;2351;50.812;12.872;2024-02-15T11:52:45;98138.44;;;12.51;100.00
5062;BME280;2351;50.812;12.872;2024-02-15T11:55:21;98138.03;;;12.65;100.00
5062;BME280;2351;50.812;12.872;2024-02-15T11:57:57;98132.28;;;12.80;100.00
5062;BME280;2351;50.812;12.872;2024-02-15T12:00:47;98131.97;;;13.03;100.00
5062;BME280;2351;50.812;12.872;2024-02-15T12:03:37;98140.06;;;13.11;100.00
5062;BME280;2351;50.812;12.872;2024-02-15T12:06:27;98142.00;;;13.19;100.00
5062;BME280;2351;50.812;12.872;2024-02-15T12:09:17;98136.09;;;13.25;100.00
5062;BME280;2351;50.812;12.872;2024-02-15T12:12:09;98141.41;;;13.35;100.00
5062;BME280;2351;50.812;12.872;2024-02-15T12:14:59;98126.44;;;13.44;100.00
5062;BME280;2351;50.812;12.872;2024-02-15T12:17:48;98127.53;;;13.41;100.00
5062;BME280;2351;50.812;12.872;2024-02-15T12:20:37;98125.13;;;13.48;100.00
5062;BME280;2351;50.812;12.872;2024-02-15T12:23:09;98123.44;;;13.57;100.00
5062;BME280;2351;50.812;12.872;2024-02-15T12:25:41;98121.84;;;13.64;100.00
5062;BME280;2351;50.812;12.872;2024-02-15T12:28:15;98123.81;;;13.62;100.00
5062;BME280;2351;50.812;12.872;2024-02-15T12:30:54;98118.50;;;13.62;100.00
5062;BME280;2351;50.812;12.872;2024-02-15T12:33:26;98111.59;;;13.69;100.00
5062;BME280;2351;50.812;12.872;2024-02-15T12:36:03;98111.31;;;13.72;99.14
5062;BME280;2351;50.812;12.872;2024-02-15T12:38:36;98114.06;;;13.80;98.96
5062;BME280;2351;50.812;12.872;2024-02-15T12:41:20;98113.28;;;13.98;98.49
5062;BME280;2351;50.812;12.872;2024-02-15T12:43:53;98111.91;;;14.12;98.36
5062;BME280;2351;50.812;12.872;2024-02-15T12:46:27;98110.78;;;14.14;97.45
5062;BME280;2351;50.812;12.872;2024-02-15T12:49:10;98114.59;;;14.12;96.05
5062;BME280;2351;50.812;12.872;2024-02-15T12:51:50;98110.91;;;13.95;93.54
5062;BME280;2351;50.812;12.872;2024-02-15T12:54:23;98107.16;;;13.88;93.46
5062;BME280;2351;50.812;12.872;2024-02-15T12:57:07;98106.84;;;13.91;93.86
5062;BME280;2351;50.812;12.872;2024-02-15T12:59:42;98094.78;;;13.96;93.62
5062;BME280;2351;50.812;12.872;2024-02-15T13:02:13;98099.28;;;13.96;92.88
5062;BME280;2351;50.812;12.872;2024-02-15T13:04:45;98106.03;;;13.90;92.28
5062;BME280;2351;50.812;12.872;2024-02-15T13:07:17;98102.38;;;13.91;92.64
5062;BME280;2351;50.812;12.872;2024-02-15T13:09:49;98096.63;;;13.96;92.68
5062;BME280;2351;50.812;12.872;2024-02-15T13:12:22;98100.50;;;14.01;92.46
5062;BME280;2351;50.812;12.872;2024-02-15T13:14:56;98095.63;;;13.97;91.13
5062;BME280;2351;50.812;12.872;2024-02-15T13:17:28;98093.34;;;14.02;91.89
5062;BME280;2351;50.812;12.872;2024-02-15T13:20:00;98093.28;;;14.12;91.96
5062;BME280;2351;50.812;12.872;2024-02-15T13:22:35;98090.56;;;14.22;92.22
5062;BME280;2351;50.812;12.872;2024-02-15T13:25:09;98090.63;;;14.30;91.68
5062;BME280;2351;50.812;12.872;2024-02-15T13:27:41;98086.75;;;14.24;90.58
5062;BME280;2351;50.812;12.872;2024-02-15T13:30:14;98089.63;;;14.13;88.39
5062;BME280;2351;50.812;12.872;2024-02-15T13:32:51;98084.91;;;14.07;89.10
5062;BME280;2351;50.812;12.872;2024-02-15T13:35:23;98097.00;;;14.01;89.13
5062;BME280;2351;50.812;12.872;2024-02-15T13:37:56;98089.75;;;13.93;89.06
5062;BME280;2351;50.812;12.872;2024-02-15T13:40:29;98084.88;;;13.89;89.02
5062;BME280;2351;50.812;12.872;2024-02-15T13:43:02;98094.44;;;13.81;89.16
5062;BME280;2351;50.812;12.872;2024-02-15T13:45:39;98085.78;;;13.79;89.32